AirNav   Pilot Hours Calculator
 
 658 users online  

7NC2 Pine Island Airport
Corolla, North Carolina, USA

GOING TO COROLLA?


FAA INFORMATION EFFECTIVE 28 FEBRUARY 2019

Location

FAA Identifier: 7NC2
Lat/Long: 36-15-12.5830N / 075-47-18.6850W
36-15.209717N / 075-47.311417W
36.2534953 / -75.7885236
(estimated)
Elevation: 16 ft. / 5 m (estimated)
Variation: 09W (1985)
From city: 9 miles S of COROLLA, NC
Time zone: UTC -5 (UTC -4 during Daylight Saving Time)
Zip code: 27927

Airport Operations

Airport use: Private use. Permission required prior to landing
Activation date: 06/1987
Control tower: no
ARTCC: WASHINGTON CENTER
FSS: RALEIGH FLIGHT SERVICE STATION
Attendance: UNATNDD
Wind indicator: yes
Segmented circle: no

Airport Communications

WX AWOS-3 at ONX (14 nm NW): 119.775 (252-453-8939)
WX AWOS-3 at FFA (15 nm S): 118.075 (252-449-0698)
WX ASOS at ECG (19 nm W): 124.375 (252-338-4750)

Nearby radio navigation aids

VOR radial/distance  VOR name  Freq  Var
ECGr098/18.7ELIZABETH CITY VOR/DME112.5007W
RBXr355/20.5WRIGHT BROTHERS VOR/DME111.6008W

 
NDB name  Hdg/Dist  Freq  Var  ID
MANTEO356/20.837009WMQI -- --.- ..
WOODVILLE101/24.725410WLLW .-.. .-.. .--

Airport Services

Runway Information

Runway 17/35

Dimensions: 3450 x 55 ft. / 1052 x 17 m
Surface: asphalt
RUNWAY 17  RUNWAY 35
Traffic pattern: leftright
RY 17/35 ALL TRAFFIC REMAIN EAST OF ARPT SO AS TO AVOID WILDLIFE SANCTUARY.

Airport Ownership and Management from official FAA records

Ownership: Privately-owned
Owner: TURNPIKE PROPERTIES LLC
1701 SUNSET AVE, STE 506
ROCKY MOUNT, NC 27804
Phone (336) 837-0237
Manager: OUTER BANKS AIRLINES
PO BOX 565
MANTEO, NC 27954
Phone 252-256-2322

Additional Remarks

MNT 122.8 FOR TRFC INVOF DARE COUNTY REGIONAL ARPT.
MNT 122.9 WHEN IN TFC PAT.
WRITTEN PERMISSION RQRD TO LND. LDG FEES FOR ALL ACFT. FOR ARPT OPNS RQMNTS, SEE ARPT WEBSITE OR CTC ARPT MGR AT 252-256-2322.
NO PRKG OF ACFT OR CARS.

Instrument Procedures

There are no published instrument procedures at 7NC2.

Some nearby airports with instrument procedures:

KONX - Currituck County Regional Airport (14 nm NW)
KFFA - First Flight Airport (15 nm S)
KECG - Elizabeth City Coast Guard Air Station/Regional Airport (19 nm W)
KMQI - Dare County Regional Airport (21 nm S)
KCPK - Chesapeake Regional Airport (36 nm NW)
 
Loc | Ops | Rwys | IFR | FBO | Links
Com | Nav | Svcs | Stats | Notes
Area around 7NC2 (Pine Island Airport)
 
Road maps at: MapQuest Bing Google
 
Aerial photo
WARNING: Photo may not be current or correct
Aerial photo of 7NC2 (Pine Island Airport)
Do you have a better or more recent aerial photo of Pine Island Airport that you would like to share? If so, please send us your photo.

 
Sectional chart

 
Airport distance calculator
Flying to Pine Island Airport? Find the distance to fly.

From to 7NC2

Sunrise and sunset
Times for 25-Mar-2019
 Local
(UTC-4)
 Zulu
(UTC)
Morning civil twilight06:3510:35
Sunrise07:0111:01
Sunset19:1823:18
Evening civil twilight19:4423:44

Current date and time
Zulu (UTC)  26-Mar-2019 03:26:36
Local (UTC-4)  25-Mar-2019 23:26:36
 
METAR
KONX 
14nm NW 
260300Z AUTO 7SM -RA OVC004 10/10 A2993 RMK AO2 T01000100
KFFA 
15nm S 
260300Z AUTO 00000KT 3/4SM +RA BKN004 OVC015 11/11 A2991 RMK AO2 T01140113
KECG 
19nm W 
260304Z 36011KT 10SM -RA BKN005 OVC055 12/10 A2992 RMK AO2 LTG DSNT SE P0000 T01170100
KMQI 
21nm S 
260300Z AUTO 04011KT 2 1/2SM +RA SCT006 BKN016 OVC034 12/11 A2993 RMK AO2 VIS 1 1/2V5 P0001 T01200112
TAF
KECG 
19nm W 
260218Z 2602/2624 01008KT 4SM RA BR SCT007 OVC015 FM260600 01012G20KT 5SM -RA BR OVC007 FM261000 02022G32KT P6SM OVC020 FM261600 02022G35KT P6SM BKN100
NOTAMs
Click for the latest NOTAMs
NOTAMs are issued by the DoD/FAA and will open in a separate window not controlled by AirNav.

 

 
 

Would you like to see your business listed on this page?

 If your business provides an interesting product or service to pilots, flight crews, aircraft, or users of the Pine Island Airport, you should consider listing it here.  To start the listing process, click on the button below
 
Add a business
 

Other Pages about Pine Island Airport

Update a link
 
Copyright © AirNav, LLC. All rights reserved. Privacy Policy  Contact